createdAt,value
2018-02-22T00:01:54.969Z,54.80
2018-02-22T00:04:23.262Z,52.50
2018-02-22T00:06:51.569Z,48.90
2018-02-22T00:09:25.793Z,55.43
2018-02-22T00:11:54.378Z,57.00
2018-02-22T00:14:23.423Z,66.50
2018-02-22T00:16:51.749Z,56.97
2018-02-22T00:19:20.816Z,51.30
2018-02-22T00:21:49.099Z,49.87
2018-02-22T00:24:17.407Z,51.83
2018-02-22T00:26:45.737Z,56.37
2018-02-22T00:29:14.018Z,51.77
2018-02-22T00:31:42.358Z,45.30
2018-02-22T00:34:10.603Z,52.77
2018-02-22T00:36:38.880Z,52.03
2018-02-22T00:39:07.174Z,53.20
2018-02-22T00:41:35.429Z,46.93
2018-02-22T00:44:03.701Z,46.60
2018-02-22T00:46:32.808Z,46.47
2018-02-22T00:49:01.080Z,63.50
2018-02-22T00:51:29.361Z,51.70
2018-02-22T00:53:57.671Z,51.90
2018-02-22T00:56:26.375Z,55.77
2018-02-22T00:58:55.458Z,60.03
2018-02-22T01:01:23.762Z,47.33
2018-02-22T01:03:52.051Z,62.23
2018-02-22T01:06:21.133Z,49.83
2018-02-22T01:08:49.443Z,43.13
2018-02-22T01:11:17.730Z,47.90
2018-02-22T01:13:45.980Z,44.37
2018-02-22T01:16:14.274Z,40.63
2018-02-22T01:18:42.547Z,38.30
2018-02-22T01:21:10.835Z,47.93
2018-02-22T01:23:39.182Z,41.37
2018-02-22T01:26:07.450Z,36.23
2018-02-22T01:28:36.518Z,45.60
2018-02-22T01:31:04.865Z,42.27
2018-02-22T01:33:33.192Z,45.23
2018-02-22T01:36:01.505Z,38.83
2018-02-22T01:38:29.786Z,42.47
2018-02-22T01:40:58.035Z,40.87
2018-02-22T01:43:27.107Z,40.73
2018-02-22T01:45:56.249Z,42.13
2018-02-22T01:48:25.355Z,40.47
2018-02-22T01:50:53.638Z,47.87
2018-02-22T01:53:23.551Z,39.40
2018-02-22T01:55:51.806Z,51.73
2018-02-22T01:58:20.072Z,59.10
2018-02-22T02:00:49.180Z,50.10
2018-02-22T02:03:17.457Z,49.67
2018-02-22T02:05:45.769Z,54.83
2018-02-22T02:08:14.069Z,57.13
2018-02-22T02:10:42.464Z,56.23
2018-02-22T02:13:11.483Z,48.73
2018-02-22T02:15:39.829Z,47.67
2018-02-22T02:18:08.881Z,35.67
2018-02-22T02:20:37.109Z,49.60
2018-02-22T02:23:06.183Z,42.60
2018-02-22T02:25:35.244Z,39.17
2018-02-22T02:28:08.308Z,38.13
2018-02-22T02:30:36.787Z,45.13
2018-02-22T02:33:05.092Z,50.50
2018-02-22T02:35:33.389Z,46.90
2018-02-22T02:38:01.654Z,46.17
2018-02-22T02:40:29.959Z,49.60
2018-02-22T02:42:59.094Z,41.77
2018-02-22T02:45:27.393Z,45.57
2018-02-22T02:47:55.716Z,46.90
2018-02-22T02:50:24.803Z,40.37
2018-02-22T02:52:53.839Z,49.10
2018-02-22T02:55:22.100Z,38.43
2018-02-22T02:57:50.408Z,41.57
2018-02-22T03:00:18.694Z,51.63
2018-02-22T03:02:46.968Z,49.80
2018-02-22T03:05:15.274Z,41.00
2018-02-22T03:07:44.328Z,39.73
2018-02-22T03:10:12.620Z,41.30
2018-02-22T03:12:40.942Z,37.33
2018-02-22T03:15:09.951Z,42.37
2018-02-22T03:17:38.198Z,46.17
2018-02-22T03:20:07.263Z,45.10
2018-02-22T03:22:35.523Z,52.63
2018-02-22T03:25:03.787Z,47.03
2018-02-22T03:27:32.127Z,44.50
2018-02-22T03:30:01.147Z,54.50
2018-02-22T03:32:29.448Z,43.17
2018-02-22T03:34:57.782Z,48.97
2018-02-22T03:37:26.028Z,46.40
2018-02-22T03:39:54.300Z,55.60
2018-02-22T03:42:22.627Z,43.23
2018-02-22T03:44:50.908Z,59.37
2018-02-22T03:47:19.204Z,43.40
2018-02-22T03:49:47.503Z,45.43
2018-02-22T03:52:15.831Z,49.83
2018-02-22T03:54:44.437Z,46.33
2018-02-22T03:57:12.714Z,48.53
2018-02-22T03:59:40.973Z,40.03
2018-02-22T04:02:09.272Z,48.00
2018-02-22T04:04:37.590Z,47.63
2018-02-22T04:07:06.621Z,55.47
2018-02-22T04:09:34.901Z,51.33
2018-02-22T04:12:04.496Z,45.63
2018-02-22T04:14:32.819Z,40.90
2018-02-22T04:17:01.079Z,49.20
2018-02-22T04:19:29.362Z,49.33
2018-02-22T04:21:57.628Z,44.37
2018-02-22T04:24:25.899Z,57.07
2018-02-22T04:26:54.199Z,49.73
2018-02-22T04:29:22.475Z,62.63
2018-02-22T04:31:50.765Z,56.33
2018-02-22T04:34:19.863Z,41.77
2018-02-22T04:36:48.895Z,48.50
2018-02-22T04:39:17.173Z,52.70
2018-02-22T04:41:45.454Z,42.93
2018-02-22T04:44:13.729Z,59.83
2018-02-22T04:46:42.028Z,51.60
2018-02-22T04:49:10.343Z,45.33
2018-02-22T04:51:38.603Z,57.97
2018-02-22T04:54:06.869Z,44.87
2018-02-22T04:56:35.158Z,59.33
2018-02-22T04:59:04.187Z,58.40
2018-02-22T05:01:32.489Z,46.13
2018-02-22T05:04:00.815Z,50.83
2018-02-22T05:06:29.850Z,60.67
2018-02-22T05:08:58.127Z,59.47
2018-02-22T05:11:26.475Z,52.90
2018-02-22T05:13:55.585Z,51.67
2018-02-22T05:16:23.843Z,48.13
2018-02-22T05:18:52.182Z,62.83
2018-02-22T05:21:20.464Z,59.97
2018-02-22T05:23:48.707Z,50.53
2018-02-22T05:26:17.019Z,57.80
2018-02-22T05:28:45.292Z,47.20
2018-02-22T05:31:13.609Z,47.93
2018-02-22T05:33:41.926Z,56.43
2018-02-22T05:36:10.229Z,60.30
2018-02-22T05:38:38.525Z,38.67
2018-02-22T05:41:07.632Z,45.43
2018-02-22T05:43:35.909Z,50.40
2018-02-22T05:46:04.196Z,40.97
2018-02-22T05:48:32.523Z,49.70
2018-02-22T05:51:00.785Z,44.63
2018-02-22T05:53:29.090Z,43.77
2018-02-22T05:55:57.422Z,44.30
2018-02-22T05:58:26.504Z,50.43
2018-02-22T06:00:54.830Z,42.60
2018-02-22T06:03:23.125Z,45.03
2018-02-22T06:05:52.150Z,42.60
2018-02-22T06:08:20.398Z,53.83
2018-02-22T06:10:49.436Z,44.17
2018-02-22T06:13:17.707Z,43.10
2018-02-22T06:15:45.979Z,50.80
2018-02-22T06:18:14.269Z,43.20
2018-02-22T06:20:42.502Z,48.33
2018-02-22T06:23:10.765Z,51.10
2018-02-22T06:25:39.807Z,44.93
2018-02-22T06:28:08.070Z,50.47
2018-02-22T06:30:36.362Z,44.20
2018-02-22T06:33:04.697Z,49.03
2018-02-22T06:35:32.976Z,49.10
2018-02-22T06:38:01.500Z,49.83
2018-02-22T06:40:29.832Z,54.13
2018-02-22T06:42:58.091Z,44.83
2018-02-22T06:45:27.102Z,38.03
2018-02-22T06:47:55.456Z,59.30
2018-02-22T06:50:24.500Z,49.20
2018-02-22T06:52:52.774Z,41.90
2018-02-22T06:55:21.927Z,34.47
2018-02-22T06:57:50.924Z,51.93
2018-02-22T07:00:19.974Z,46.77
2018-02-22T07:02:48.318Z,42.20
2018-02-22T07:05:16.650Z,42.73
2018-02-22T07:07:44.920Z,47.77
2018-02-22T07:10:13.233Z,45.20
2018-02-22T07:12:41.519Z,51.43
2018-02-22T07:15:09.781Z,51.67
2018-02-22T07:17:38.889Z,39.33
2018-02-22T07:20:07.141Z,47.50
2018-02-22T07:22:36.157Z,41.10
2018-02-22T07:25:04.451Z,43.63
2018-02-22T07:27:32.700Z,46.37
2018-02-22T07:30:01.730Z,51.60
2018-02-22T07:32:30.013Z,44.43
2018-02-22T07:34:58.324Z,46.00
2018-02-22T07:37:26.663Z,42.07
2018-02-22T07:39:54.924Z,33.50
2018-02-22T07:42:23.198Z,40.40
2018-02-22T07:44:51.482Z,33.67
2018-02-22T07:47:19.720Z,55.53
2018-02-22T07:49:47.963Z,50.57
2018-02-22T07:52:16.303Z,44.10
2018-02-22T07:54:44.575Z,36.40
2018-02-22T07:57:12.877Z,35.20
2018-02-22T07:59:41.226Z,18.73
2018-02-22T08:02:09.690Z,43.37
2018-02-22T08:04:38.064Z,43.43
2018-02-22T08:07:06.548Z,36.37
2018-02-22T08:09:35.188Z,44.70
2018-02-22T08:12:04.535Z,30.40
2018-02-22T08:14:34.110Z,38.30
2018-02-22T08:17:03.106Z,32.00
2018-02-22T08:19:32.972Z,32.70
2018-02-22T08:22:02.793Z,28.07
2018-02-22T08:24:31.152Z,30.00
2018-02-22T08:26:59.471Z,29.23
2018-02-22T08:29:27.888Z,24.10
2018-02-22T08:31:56.292Z,29.73
2018-02-22T08:34:25.693Z,26.57
2018-02-22T08:36:54.753Z,28.90
2018-02-22T08:39:24.168Z,41.63
2018-02-22T08:41:52.560Z,33.03
2018-02-22T08:44:20.882Z,32.13
2018-02-22T08:46:49.578Z,22.13
2018-02-22T08:49:18.032Z,20.77
2018-02-22T08:51:46.471Z,26.17
2018-02-22T08:54:16.150Z,32.83
2018-02-22T08:56:44.607Z,22.83
2018-02-22T08:59:12.941Z,24.30
2018-02-22T09:01:42.681Z,26.30
2018-02-22T09:04:11.201Z,24.17
2018-02-22T09:06:39.784Z,20.70
2018-02-22T09:09:08.854Z,23.50
2018-02-22T09:11:37.617Z,24.47
2018-02-22T09:14:07.031Z,20.17
2018-02-22T09:16:35.732Z,22.60
2018-02-22T09:19:04.365Z,19.20
2018-02-22T09:21:33.002Z,28.77
2018-02-22T09:24:03.064Z,19.33
2018-02-22T09:26:31.642Z,24.70
2018-02-22T09:29:00.614Z,25.13
2018-02-22T09:31:29.632Z,19.60
2018-02-22T09:33:58.170Z,23.40
2018-02-22T09:36:26.837Z,18.40
2018-02-22T09:38:56.503Z,21.83
2018-02-22T09:41:25.453Z,25.40
2018-02-22T09:43:54.017Z,20.43
2018-02-22T09:46:22.783Z,17.40
2018-02-22T09:48:51.186Z,23.10
2018-02-22T09:51:19.735Z,19.27
2018-02-22T09:53:48.361Z,16.17
2018-02-22T09:56:17.958Z,21.17
2018-02-22T09:58:46.699Z,14.00
2018-02-22T10:01:16.034Z,16.87
2018-02-22T10:03:44.285Z,13.07
2018-02-22T10:06:12.664Z,17.90
2018-02-22T10:08:41.116Z,17.83
2018-02-22T10:11:09.789Z,19.40
2018-02-22T10:13:38.153Z,22.90
2018-02-22T10:16:06.532Z,16.77
2018-02-22T10:18:34.864Z,17.40
2018-02-22T10:21:03.267Z,19.83
2018-02-22T10:23:31.773Z,19.80
2018-02-22T10:26:00.094Z,22.87
2018-02-22T10:28:28.433Z,17.83
2018-02-22T10:30:57.527Z,22.33
2018-02-22T10:33:26.845Z,22.10
2018-02-22T10:35:55.246Z,24.27
2018-02-22T10:38:23.595Z,19.03
2018-02-22T10:40:52.896Z,17.03
2018-02-22T10:43:21.241Z,20.80
2018-02-22T10:45:50.379Z,12.33
2018-02-22T10:48:18.644Z,22.00
2018-02-22T10:50:47.001Z,25.03
2018-02-22T10:53:15.618Z,20.27
2018-02-22T10:55:43.951Z,23.80
2018-02-22T10:58:12.233Z,15.77
2018-02-22T11:00:46.017Z,19.60
2018-02-22T11:03:14.419Z,21.30
2018-02-22T11:05:42.736Z,18.03
2018-02-22T11:08:11.781Z,21.77
2018-02-22T11:10:40.044Z,24.77
2018-02-22T11:13:08.332Z,18.07
2018-02-22T11:15:36.629Z,21.93
2018-02-22T11:18:04.906Z,21.63
2018-02-22T11:20:33.201Z,18.13
2018-02-22T11:23:02.367Z,17.23
2018-02-22T11:25:30.737Z,21.67
2018-02-22T11:27:59.049Z,12.83
2018-02-22T11:30:27.441Z,18.23
2018-02-22T11:32:56.466Z,18.93
2018-02-22T11:35:24.866Z,18.60
2018-02-22T11:37:53.634Z,13.90
2018-02-22T11:40:28.989Z,16.70
2018-02-22T11:42:57.686Z,18.73
2018-02-22T11:45:26.004Z,18.93
2018-02-22T11:47:55.389Z,17.27
2018-02-22T11:50:23.727Z,17.93
2018-02-22T11:52:51.946Z,16.80
2018-02-22T11:55:20.402Z,14.33
2018-02-22T11:57:48.678Z,17.27
2018-02-22T12:00:16.933Z,13.07
2018-02-22T12:02:45.400Z,15.40
2018-02-22T12:05:13.763Z,20.77
2018-02-22T12:07:42.160Z,17.37
2018-02-22T12:10:10.597Z,18.03
2018-02-22T12:12:39.705Z,17.13
2018-02-22T12:15:08.826Z,19.63
2018-02-22T12:17:37.187Z,20.80
2018-02-22T12:20:05.564Z,20.40
2018-02-22T12:22:33.842Z,18.13
2018-02-22T12:25:02.949Z,29.93
2018-02-22T12:27:31.240Z,124.77
2018-02-22T12:29:59.525Z,18.83
2018-02-22T12:32:27.827Z,15.67
2018-02-22T12:34:56.060Z,60.40
2018-02-22T12:37:24.316Z,66.50
2018-02-22T12:39:52.586Z,28.87
2018-02-22T12:42:20.992Z,16.77
2018-02-22T12:44:49.333Z,31.67
2018-02-22T12:47:18.419Z,31.57
2018-02-22T12:49:46.820Z,19.90
2018-02-22T12:52:15.156Z,31.60
2018-02-22T12:54:43.510Z,42.37
2018-02-22T12:57:13.336Z,17.70
2018-02-22T12:59:41.597Z,30.53
2018-02-22T13:02:10.740Z,16.97
2018-02-22T13:04:39.018Z,15.10
2018-02-22T13:07:08.049Z,20.93
2018-02-22T13:09:36.306Z,18.80
2018-02-22T13:12:04.679Z,18.37
2018-02-22T13:14:33.664Z,16.97
2018-02-22T13:17:02.665Z,15.73
2018-02-22T13:19:31.699Z,20.60
2018-02-22T13:21:59.946Z,19.93
2018-02-22T13:24:28.361Z,17.23
2018-02-22T13:26:56.674Z,19.57
2018-02-22T13:29:24.948Z,12.67
2018-02-22T13:31:53.550Z,10.53
2018-02-22T13:34:35.745Z,15.63
2018-02-22T13:37:22.529Z,13.80
2018-02-22T13:39:51.754Z,22.67
2018-02-22T13:42:20.822Z,13.57
2018-02-22T13:45:07.072Z,15.40
2018-02-22T13:47:35.443Z,46.17
2018-02-22T13:50:21.598Z,14.67
2018-02-22T13:52:50.013Z,16.67
2018-02-22T13:55:18.336Z,18.97
2018-02-22T13:57:46.623Z,18.53
2018-02-22T14:00:32.835Z,21.83
2018-02-22T14:03:01.886Z,14.17
2018-02-22T14:05:30.297Z,18.00
2018-02-22T14:07:58.726Z,22.30
2018-02-22T14:10:27.037Z,23.33
2018-02-22T14:12:55.350Z,18.17
2018-02-22T14:15:23.835Z,15.00
2018-02-22T14:17:52.262Z,19.33
2018-02-22T14:20:20.568Z,18.73
2018-02-22T14:22:49.121Z,24.83
2018-02-22T14:25:17.428Z,20.87
2018-02-22T14:27:45.815Z,14.93
2018-02-22T14:30:14.304Z,10.67
2018-02-22T14:32:43.419Z,16.67
2018-02-22T14:35:11.763Z,14.73
2018-02-22T14:37:40.121Z,18.20
2018-02-22T14:40:08.438Z,14.67
2018-02-22T14:42:36.720Z,21.13
2018-02-22T14:45:05.074Z,16.47
2018-02-22T14:47:34.293Z,12.90
2018-02-22T14:50:02.577Z,12.50
2018-02-22T14:52:31.350Z,16.40
2018-02-22T14:55:00.395Z,12.10
2018-02-22T14:57:28.713Z,14.77
2018-02-22T14:59:57.160Z,22.33
2018-02-22T15:02:26.563Z,20.13
2018-02-22T15:04:54.986Z,17.67
2018-02-22T15:07:24.285Z,14.27
2018-02-22T15:09:52.571Z,16.63
2018-02-22T15:12:21.636Z,18.30
2018-02-22T15:14:49.931Z,17.30
2018-02-22T15:17:18.295Z,15.10
2018-02-22T15:19:47.390Z,21.27
2018-02-22T15:22:15.695Z,16.07
2018-02-22T15:24:43.943Z,16.07
2018-02-22T15:27:12.223Z,13.43
2018-02-22T15:29:41.391Z,13.27
2018-02-22T15:32:09.684Z,26.23
2018-02-22T15:34:38.027Z,18.67
2018-02-22T15:37:06.471Z,30.53
2018-02-22T15:39:34.717Z,22.30
2018-02-22T15:42:03.735Z,16.93
2018-02-22T15:44:32.036Z,12.73
2018-02-22T15:47:00.311Z,15.67
2018-02-22T15:49:28.608Z,20.20
2018-02-22T15:51:56.900Z,16.10
2018-02-22T15:54:25.149Z,22.73
2018-02-22T15:56:53.408Z,18.90
2018-02-22T15:59:21.665Z,21.70
2018-02-22T16:01:50.022Z,13.00
2018-02-22T16:04:19.057Z,21.23
2018-02-22T16:06:47.317Z,16.77
2018-02-22T16:09:15.625Z,23.97
2018-02-22T16:11:43.905Z,14.80
2018-02-22T16:14:12.203Z,20.00
2018-02-22T16:16:41.539Z,25.37
2018-02-22T16:19:09.819Z,24.40
2018-02-22T16:21:38.116Z,19.00
2018-02-22T16:24:06.495Z,21.57
2018-02-22T16:26:34.871Z,26.90
2018-02-22T16:29:03.174Z,19.10
2018-02-22T16:31:31.446Z,24.73
2018-02-22T16:34:06.472Z,24.17
2018-02-22T16:36:34.787Z,27.60
2018-02-22T16:39:03.030Z,27.90
2018-02-22T16:41:44.625Z,33.67
2018-02-22T16:44:13.068Z,24.30
2018-02-22T16:46:41.312Z,32.83
2018-02-22T16:49:10.429Z,27.73
2018-02-22T16:51:38.895Z,30.00
2018-02-22T16:54:07.921Z,29.80
2018-02-22T16:56:36.185Z,26.53
2018-02-22T16:59:04.469Z,29.87
2018-02-22T17:01:32.737Z,32.00
2018-02-22T17:04:01.014Z,41.57
2018-02-22T17:06:29.312Z,45.00
2018-02-22T17:09:12.220Z,36.77
2018-02-22T17:11:40.610Z,22.10
2018-02-22T17:14:08.887Z,40.63
2018-02-22T17:16:37.169Z,34.80
2018-02-22T17:19:05.447Z,70.17
2018-02-22T17:21:37.080Z,33.03
2018-02-22T17:24:07.141Z,31.57
2018-02-22T17:26:41.042Z,110.37
2018-02-22T17:29:14.836Z,24.87
2018-02-22T17:32:12.467Z,29.10
2018-02-22T17:34:45.497Z,28.53
2018-02-22T17:37:20.142Z,23.43
2018-02-22T17:39:49.614Z,27.73
2018-02-22T17:42:17.917Z,33.10
2018-02-22T17:44:46.217Z,34.80
2018-02-22T17:47:14.520Z,25.23
2018-02-22T17:49:42.811Z,36.03
2018-02-22T17:52:11.167Z,29.30
2018-02-22T17:54:39.457Z,29.60
2018-02-22T17:57:07.808Z,29.93
2018-02-22T17:59:36.522Z,42.53
2018-02-22T18:02:05.722Z,31.67
2018-02-22T18:04:34.319Z,35.40
2018-02-22T18:07:02.697Z,42.23
2018-02-22T18:09:30.950Z,46.43
2018-02-22T18:12:00.027Z,30.73
2018-02-22T18:14:28.470Z,33.20
2018-02-22T18:16:58.410Z,35.57
2018-02-22T18:19:27.532Z,55.70
2018-02-22T18:21:56.406Z,38.43
2018-02-22T18:24:25.592Z,36.97
2018-02-22T18:26:54.803Z,30.70
2018-02-22T18:29:23.119Z,32.80
2018-02-22T18:31:51.388Z,30.07
2018-02-22T18:34:19.644Z,31.10
2018-02-22T18:36:47.966Z,44.00
2018-02-22T18:39:16.972Z,42.87
2018-02-22T18:41:51.497Z,34.53
2018-02-22T18:44:26.261Z,37.70
2018-02-22T18:46:55.767Z,41.30
2018-02-22T18:49:24.689Z,39.80
2018-02-22T18:54:54.505Z,37.67
2018-02-22T18:57:22.980Z,37.13
2018-02-22T18:59:54.319Z,44.30
2018-02-22T19:02:22.854Z,47.90
2018-02-22T19:07:48.991Z,42.00
2018-02-22T19:13:21.097Z,28.87
2018-02-22T19:15:50.170Z,37.33
2018-02-22T19:18:18.484Z,29.97
2018-02-22T19:20:46.771Z,35.40
2018-02-22T19:23:15.899Z,30.63
2018-02-22T19:25:44.223Z,34.20
2018-02-22T19:28:12.709Z,36.83
2018-02-22T19:30:41.776Z,37.33
2018-02-22T19:33:10.105Z,39.53
2018-02-22T19:35:38.467Z,43.73
2018-02-22T19:38:06.756Z,37.00
2018-02-22T19:40:35.018Z,32.23
2018-02-22T19:43:03.361Z,49.17
2018-02-22T19:45:31.626Z,44.40
2018-02-22T19:48:00.384Z,40.17
2018-02-22T19:50:28.660Z,44.97
2018-02-22T19:52:57.011Z,39.67
2018-02-22T19:55:25.504Z,35.67
2018-02-22T19:57:55.114Z,48.93
2018-02-22T20:00:23.468Z,51.20
2018-02-22T20:02:51.923Z,50.13
2018-02-22T20:05:20.246Z,42.43
2018-02-22T20:07:48.502Z,50.10
2018-02-22T20:10:17.596Z,42.37
2018-02-22T20:12:45.967Z,46.77
2018-02-22T20:15:15.019Z,37.13
2018-02-22T20:17:43.324Z,44.03
2018-02-22T20:20:12.505Z,34.40
2018-02-22T20:22:41.606Z,41.20
2018-02-22T20:25:09.966Z,59.17
2018-02-22T20:27:38.269Z,41.73
2018-02-22T20:30:07.355Z,44.90
2018-02-22T20:32:35.595Z,47.93
2018-02-22T20:35:03.926Z,56.87
2018-02-22T20:37:33.008Z,50.37
2018-02-22T20:40:02.132Z,48.60
2018-02-22T20:42:36.494Z,44.40
2018-02-22T20:45:04.948Z,41.43
2018-02-22T20:47:33.344Z,42.67
2018-02-22T20:50:02.456Z,47.07
2018-02-22T20:52:36.589Z,49.67
2018-02-22T20:55:08.701Z,41.60
2018-02-22T20:57:37.033Z,41.57
2018-02-22T21:00:05.365Z,44.63
2018-02-22T21:02:33.597Z,40.73
2018-02-22T21:05:02.674Z,44.77
2018-02-22T21:07:30.954Z,45.30
2018-02-22T21:09:59.234Z,38.60
2018-02-22T21:12:27.586Z,41.03
2018-02-22T21:14:55.850Z,37.47
2018-02-22T21:17:24.134Z,38.20
2018-02-22T21:19:52.517Z,44.80
2018-02-22T21:22:20.777Z,48.70
2018-02-22T21:24:49.061Z,41.00
2018-02-22T21:27:17.437Z,55.80
2018-02-22T21:29:46.510Z,44.53
2018-02-22T21:32:14.897Z,41.83
2018-02-22T21:34:43.255Z,43.50
2018-02-22T21:37:11.554Z,54.37
2018-02-22T21:39:39.830Z,149.80
2018-02-22T21:42:08.116Z,61.10
2018-02-22T21:44:36.393Z,67.90
2018-02-22T21:47:04.659Z,49.97
2018-02-22T21:49:33.083Z,42.53
2018-02-22T21:52:01.422Z,45.17
2018-02-22T21:54:29.667Z,45.30
2018-02-22T21:56:57.998Z,60.40
2018-02-22T21:59:26.369Z,47.53
2018-02-22T22:01:54.602Z,55.23
2018-02-22T22:04:22.938Z,46.77
2018-02-22T22:06:51.214Z,76.43
2018-02-22T22:09:19.462Z,109.47
2018-02-22T22:11:47.906Z,73.90
2018-02-22T22:14:16.262Z,42.93
2018-02-22T22:16:45.262Z,41.90
2018-02-22T22:19:13.722Z,34.93
2018-02-22T22:21:41.989Z,42.37
2018-02-22T22:24:10.262Z,49.80
2018-02-22T22:26:39.329Z,41.70
2018-02-22T22:29:07.701Z,31.87
2018-02-22T22:31:36.016Z,38.00
2018-02-22T22:34:04.282Z,36.80
2018-02-22T22:36:32.511Z,45.50
2018-02-22T22:39:00.776Z,48.93
2018-02-22T22:41:29.131Z,43.47
2018-02-22T22:43:58.192Z,41.67
2018-02-22T22:46:26.452Z,44.70
2018-02-22T22:48:54.851Z,35.90
2018-02-22T22:51:23.164Z,30.77
2018-02-22T22:53:52.183Z,41.77
2018-02-22T22:56:20.506Z,38.57
2018-02-22T22:58:48.781Z,39.50
2018-02-22T23:01:17.885Z,32.23
2018-02-22T23:03:47.072Z,38.50
2018-02-22T23:06:15.385Z,34.47
2018-02-22T23:08:45.127Z,35.10
2018-02-22T23:11:13.475Z,41.27
2018-02-22T23:13:42.004Z,41.67
2018-02-22T23:16:10.298Z,33.23
2018-02-22T23:18:38.578Z,41.23
2018-02-22T23:21:07.599Z,38.50
2018-02-22T23:23:36.703Z,37.73
2018-02-22T23:26:05.034Z,40.67
2018-02-22T23:28:33.349Z,44.00
2018-02-22T23:31:01.603Z,46.27
2018-02-22T23:33:29.944Z,38.70
2018-02-22T23:35:58.217Z,35.80
2018-02-22T23:38:26.450Z,36.00
2018-02-22T23:41:04.634Z,29.93
2018-02-22T23:43:32.932Z,34.80
2018-02-22T23:46:01.180Z,44.83
2018-02-22T23:48:30.521Z,33.00
2018-02-22T23:50:58.767Z,36.93
2018-02-22T23:53:27.058Z,40.60
2018-02-22T23:55:55.371Z,36.23
2018-02-22T23:58:23.654Z,36.30
